createdAt,value
2023-03-11T00:00:57.259Z,78.58
2023-03-11T00:02:00.950Z,78.41
2023-03-11T00:03:05.799Z,78.42
2023-03-11T00:04:09.392Z,78.02
2023-03-11T00:05:16.853Z,78.15
2023-03-11T00:06:20.481Z,78.40
2023-03-11T00:07:23.040Z,78.37
2023-03-11T00:08:26.965Z,78.41
2023-03-11T00:09:29.389Z,78.43
2023-03-11T00:10:35.155Z,78.67
2023-03-11T00:11:37.765Z,78.68
2023-03-11T00:12:41.444Z,78.95
2023-03-11T00:13:44.092Z,79.06
2023-03-11T00:14:47.597Z,79.45
2023-03-11T00:15:56.017Z,79.35
2023-03-11T00:17:01.185Z,79.76
2023-03-11T00:18:06.342Z,79.79
2023-03-11T00:19:10.814Z,79.97
2023-03-11T00:20:19.471Z,79.98
2023-03-11T00:21:23.115Z,80.17
2023-03-11T00:22:25.635Z,80.43
2023-03-11T00:23:30.342Z,80.56
2023-03-11T00:24:32.851Z,80.95
2023-03-11T00:25:37.985Z,80.55
2023-03-11T00:26:41.615Z,80.85
2023-03-11T00:27:44.112Z,80.81
2023-03-11T00:28:48.808Z,80.85
2023-03-11T00:29:51.443Z,80.66
2023-03-11T00:30:55.486Z,80.70
2023-03-11T00:31:58.079Z,80.72
2023-03-11T00:33:03.504Z,80.37
2023-03-11T00:34:06.099Z,80.40
2023-03-11T00:35:13.488Z,80.30
2023-03-11T00:36:31.775Z,80.19
2023-03-11T00:37:34.755Z,79.98
2023-03-11T00:38:38.387Z,79.89
2023-03-11T00:39:41.002Z,79.88
2023-03-11T00:40:46.112Z,79.98
2023-03-11T00:41:48.718Z,79.67
2023-03-11T00:42:53.059Z,79.28
2023-03-11T00:43:55.603Z,79.08
2023-03-11T00:44:59.274Z,78.83
2023-03-11T00:46:05.119Z,78.65
2023-03-11T00:47:07.951Z,78.52
2023-03-11T00:48:14.029Z,78.41
2023-03-11T00:49:16.563Z,78.34
2023-03-11T00:50:22.599Z,78.27
2023-03-11T00:51:25.213Z,78.16
2023-03-11T00:52:29.141Z,78.12
2023-03-11T00:53:32.793Z,78.46
2023-03-11T00:54:35.311Z,78.41
2023-03-11T00:55:38.924Z,78.40
2023-03-11T00:56:41.992Z,78.47
2023-03-11T00:57:46.101Z,78.61
2023-03-11T00:58:48.576Z,78.24
2023-03-11T00:59:52.644Z,78.36
2023-03-11T01:00:56.428Z,77.94
2023-03-11T01:01:59.184Z,78.33
2023-03-11T01:03:02.916Z,78.69
2023-03-11T01:04:07.480Z,78.56
2023-03-11T01:05:12.073Z,78.56
2023-03-11T01:06:15.105Z,78.87
2023-03-11T01:07:18.681Z,78.87
2023-03-11T01:08:21.170Z,79.00
2023-03-11T01:09:24.824Z,79.26
2023-03-11T01:10:28.263Z,79.39
2023-03-11T01:11:31.848Z,79.56
2023-03-11T01:12:34.672Z,79.34
2023-03-11T01:13:38.713Z,79.68
2023-03-11T01:14:41.273Z,79.78
2023-03-11T01:15:44.838Z,79.71
2023-03-11T01:16:47.509Z,79.86
2023-03-11T01:17:51.212Z,80.27
2023-03-11T01:18:53.681Z,80.26
2023-03-11T01:19:58.725Z,80.35
2023-03-11T01:21:01.600Z,80.55
2023-03-11T01:22:05.469Z,80.59
2023-03-11T01:23:08.447Z,80.58
2023-03-11T01:24:12.107Z,80.74
2023-03-11T01:25:16.610Z,80.78
2023-03-11T01:26:20.309Z,80.93
2023-03-11T01:27:22.826Z,80.93
2023-03-11T01:28:26.439Z,80.77
2023-03-11T01:29:28.911Z,80.73
2023-03-11T01:30:32.982Z,80.77
2023-03-11T01:31:35.475Z,80.97
2023-03-11T01:32:39.138Z,81.10
2023-03-11T01:33:41.877Z,81.14
2023-03-11T01:34:45.459Z,81.18
2023-03-11T01:35:49.739Z,81.18
2023-03-11T01:36:53.356Z,81.08
2023-03-11T01:37:56.163Z,81.36
2023-03-11T01:38:59.798Z,81.41
2023-03-11T01:40:02.478Z,81.45
2023-03-11T01:41:06.835Z,81.55
2023-03-11T01:42:09.378Z,81.49
2023-03-11T01:43:48.317Z,81.53
2023-03-11T01:44:52.020Z,81.65
2023-03-11T01:46:14.134Z,81.71
2023-03-11T01:47:36.652Z,81.60
2023-03-11T01:48:39.273Z,81.72
2023-03-11T01:49:43.053Z,81.75
2023-03-11T01:50:50.163Z,81.69
2023-03-11T01:51:55.974Z,81.85
2023-03-11T01:52:58.452Z,81.88
2023-03-11T01:54:07.095Z,81.90
2023-03-11T01:55:13.039Z,82.29
2023-03-11T01:56:16.752Z,82.05
2023-03-11T01:57:21.759Z,82.01
2023-03-11T01:58:28.135Z,82.22
2023-03-11T01:59:33.761Z,82.36
2023-03-11T02:00:38.903Z,82.48
2023-03-11T02:01:50.400Z,82.65
2023-03-11T02:02:55.408Z,82.47
2023-03-11T02:03:58.814Z,82.40
2023-03-11T02:05:04.541Z,82.56
2023-03-11T02:06:12.207Z,82.69
2023-03-11T02:07:16.616Z,82.70
2023-03-11T02:08:19.165Z,82.94
2023-03-11T02:09:24.348Z,82.71
2023-03-11T02:10:27.857Z,82.97
2023-03-11T02:11:32.826Z,83.03
2023-03-11T02:12:37.260Z,82.99
2023-03-11T02:13:43.320Z,83.04
2023-03-11T02:14:49.261Z,83.08
2023-03-11T02:15:53.770Z,83.23
2023-03-11T02:16:57.695Z,83.31
2023-03-11T02:18:03.543Z,83.47
2023-03-11T02:19:17.988Z,83.36
2023-03-11T02:20:31.878Z,83.07
2023-03-11T02:21:36.078Z,83.47
2023-03-11T02:22:41.944Z,83.26
2023-03-11T02:23:52.128Z,83.39
2023-03-11T02:24:58.402Z,83.39
2023-03-11T02:26:09.920Z,83.21
2023-03-11T02:27:17.424Z,83.46
2023-03-11T02:28:23.273Z,83.74
2023-03-11T02:29:27.838Z,83.88
2023-03-11T02:30:34.415Z,83.82
2023-03-11T02:31:41.819Z,83.76
2023-03-11T02:32:48.699Z,83.92
2023-03-11T02:33:56.340Z,83.95
2023-03-11T02:34:58.823Z,83.86
2023-03-11T02:36:02.607Z,84.07
2023-03-11T02:37:07.095Z,84.11
2023-03-11T02:38:10.816Z,84.40
2023-03-11T02:39:13.663Z,84.36
2023-03-11T02:40:42.978Z,84.51
2023-03-11T02:41:47.329Z,84.37
2023-03-11T02:42:55.601Z,84.53
2023-03-11T02:43:59.467Z,84.53
2023-03-11T02:45:04.763Z,84.43
2023-03-11T02:46:10.315Z,84.77
2023-03-11T02:47:14.246Z,84.29
2023-03-11T02:48:17.132Z,84.84
2023-03-11T02:49:21.898Z,84.75
2023-03-11T02:50:26.025Z,84.71
2023-03-11T02:51:29.639Z,85.01
2023-03-11T02:52:34.376Z,84.92
2023-03-11T02:53:42.934Z,85.03
2023-03-11T02:54:45.608Z,85.05
2023-03-11T02:55:49.279Z,85.32
2023-03-11T02:56:51.770Z,85.19
2023-03-11T02:57:56.856Z,84.96
2023-03-11T02:58:59.433Z,85.10
2023-03-11T03:00:11.192Z,85.26
2023-03-11T03:01:13.824Z,85.15
2023-03-11T03:02:17.924Z,85.29
2023-03-11T03:03:20.458Z,85.14
2023-03-11T03:04:24.101Z,85.14
2023-03-11T03:05:26.693Z,85.18
2023-03-11T03:06:30.492Z,85.27
2023-03-11T03:07:33.439Z,85.26
2023-03-11T03:08:37.091Z,85.32
2023-03-11T03:09:39.619Z,85.13
2023-03-11T03:10:43.148Z,85.24
2023-03-11T03:11:45.791Z,85.56
2023-03-11T03:12:49.503Z,85.39
2023-03-11T03:13:54.549Z,85.34
2023-03-11T03:14:58.309Z,85.30
2023-03-11T03:16:02.331Z,85.27
2023-03-11T03:17:05.165Z,85.31
2023-03-11T03:18:08.892Z,85.63
2023-03-11T03:19:11.556Z,85.19
2023-03-11T03:20:16.709Z,85.30
2023-03-11T03:21:19.217Z,85.55
2023-03-11T03:22:24.556Z,85.62
2023-03-11T03:23:28.221Z,85.43
2023-03-11T03:24:30.756Z,85.70
2023-03-11T03:25:34.445Z,85.50
2023-03-11T03:26:37.636Z,85.68
2023-03-11T03:27:41.440Z,85.71
2023-03-11T03:28:44.016Z,85.77
2023-03-11T03:29:49.515Z,85.85
2023-03-11T03:30:52.025Z,85.74
2023-03-11T03:31:55.756Z,85.83
2023-03-11T03:32:58.366Z,85.79
2023-03-11T03:34:01.893Z,85.70
2023-03-11T03:35:05.167Z,86.00
2023-03-11T03:36:10.207Z,86.07
2023-03-11T03:37:12.770Z,85.81
2023-03-11T03:38:16.650Z,85.97
2023-03-11T03:39:19.943Z,85.94
2023-03-11T03:40:23.966Z,85.88
2023-03-11T03:41:26.490Z,85.87
2023-03-11T03:42:30.308Z,85.71
2023-03-11T03:43:32.920Z,85.82
2023-03-11T03:44:36.597Z,85.95
2023-03-11T03:45:41.678Z,85.81
2023-03-11T03:46:44.232Z,85.62
2023-03-11T03:47:48.103Z,85.94
2023-03-11T03:48:50.681Z,85.59
2023-03-11T03:49:54.363Z,85.45
2023-03-11T03:50:57.087Z,85.69
2023-03-11T03:52:00.538Z,85.45
2023-03-11T03:53:03.101Z,85.52
2023-03-11T03:54:06.796Z,85.38
2023-03-11T03:55:10.071Z,85.39
2023-03-11T03:56:17.037Z,85.21
2023-03-11T03:57:19.515Z,85.26
2023-03-11T03:58:23.156Z,84.94
2023-03-11T03:59:25.845Z,85.44
2023-03-11T04:00:29.344Z,85.10
2023-03-11T04:01:33.358Z,84.86
2023-03-11T04:02:36.963Z,85.14
2023-03-11T04:03:39.926Z,84.87
2023-03-11T04:04:43.784Z,84.68
2023-03-11T04:05:46.323Z,84.51
2023-03-11T04:06:49.996Z,84.48
2023-03-11T04:07:52.602Z,84.53
2023-03-11T04:08:56.946Z,84.46
2023-03-11T04:09:59.483Z,84.44
2023-03-11T04:11:03.126Z,84.37
2023-03-11T04:12:06.275Z,83.96
2023-03-11T04:13:09.879Z,83.94
2023-03-11T04:14:12.406Z,83.71
2023-03-11T04:15:16.267Z,83.72
2023-03-11T04:16:21.928Z,83.67
2023-03-11T04:17:27.050Z,83.59
2023-03-11T04:18:29.513Z,83.44
2023-03-11T04:19:34.041Z,83.36
2023-03-11T04:20:39.296Z,82.98
2023-03-11T04:21:43.423Z,82.93
2023-03-11T04:22:45.907Z,82.62
2023-03-11T04:23:49.570Z,82.86
2023-03-11T04:24:53.234Z,82.21
2023-03-11T04:25:55.940Z,82.32
2023-03-11T04:26:59.525Z,82.13
2023-03-11T04:28:01.990Z,82.25
2023-03-11T04:29:05.565Z,81.93
2023-03-11T04:30:09.663Z,81.68
2023-03-11T04:31:13.711Z,81.53
2023-03-11T04:32:16.265Z,81.38
2023-03-11T04:33:21.383Z,81.27
2023-03-11T04:34:23.933Z,81.36
2023-03-11T04:35:27.686Z,81.21
2023-03-11T04:36:30.606Z,81.02
2023-03-11T04:37:34.218Z,80.99
2023-03-11T04:38:36.758Z,80.98
2023-03-11T04:39:40.397Z,80.63
2023-03-11T04:40:43.127Z,80.31
2023-03-11T04:41:46.864Z,80.39
2023-03-11T04:42:49.345Z,80.22
2023-03-11T04:43:52.915Z,80.24
2023-03-11T04:44:55.432Z,80.18
2023-03-11T04:45:59.008Z,79.86
2023-03-11T04:47:02.985Z,79.68
2023-03-11T04:48:05.233Z,79.69
2023-03-11T04:49:10.564Z,79.67
2023-03-11T04:50:13.171Z,79.84
2023-03-11T04:51:18.452Z,79.35
2023-03-11T04:52:21.187Z,79.27
2023-03-11T04:53:24.854Z,79.49
2023-03-11T04:54:27.495Z,79.54
2023-03-11T04:55:31.385Z,79.21
2023-03-11T04:56:34.135Z,79.27
2023-03-11T04:57:38.279Z,79.30
2023-03-11T04:58:40.888Z,79.28
2023-03-11T04:59:44.566Z,79.23
2023-03-11T05:00:47.423Z,79.30
2023-03-11T05:01:51.026Z,79.13
2023-03-11T05:02:54.084Z,79.30
2023-03-11T05:03:57.752Z,79.37
2023-03-11T05:05:01.962Z,79.36
2023-03-11T05:06:06.108Z,79.38
2023-03-11T05:07:08.616Z,79.31
2023-03-11T05:08:12.416Z,79.54
2023-03-11T05:09:14.982Z,79.48
2023-03-11T05:10:22.779Z,79.09
2023-03-11T05:11:25.435Z,78.50
2023-03-11T05:12:29.065Z,78.55
2023-03-11T05:13:33.132Z,78.48
2023-03-11T05:14:35.668Z,78.71
2023-03-11T05:15:39.349Z,78.03
2023-03-11T05:16:43.099Z,78.09
2023-03-11T05:17:45.972Z,77.82
2023-03-11T05:18:50.058Z,77.63
2023-03-11T05:19:53.814Z,77.45
2023-03-11T05:20:58.893Z,77.33
2023-03-11T05:22:01.853Z,77.30
2023-03-11T05:23:06.004Z,77.41
2023-03-11T05:24:08.428Z,77.50
2023-03-11T05:25:12.044Z,77.22
2023-03-11T05:26:15.161Z,76.62
2023-03-11T05:27:20.031Z,76.42
2023-03-11T05:28:22.737Z,76.58
2023-03-11T05:29:27.322Z,76.30
2023-03-11T05:30:29.899Z,76.09
2023-03-11T05:31:33.477Z,75.48
2023-03-11T05:32:36.045Z,75.71
2023-03-11T05:33:39.652Z,75.05
2023-03-11T05:34:42.331Z,74.94
2023-03-11T05:35:45.857Z,74.58
2023-03-11T05:36:49.931Z,74.34
2023-03-11T05:37:54.994Z,74.08
2023-03-11T05:38:57.553Z,73.63
2023-03-11T05:40:01.524Z,73.67
2023-03-11T05:41:06.639Z,72.94
2023-03-11T05:42:12.121Z,72.68
2023-03-11T05:43:14.669Z,72.87
2023-03-11T05:44:18.377Z,73.21
2023-03-11T05:45:21.090Z,72.87
2023-03-11T05:46:24.827Z,73.09
2023-03-11T05:47:27.403Z,72.88
2023-03-11T05:48:31.094Z,72.85
2023-03-11T05:49:33.620Z,72.81
2023-03-11T05:50:37.356Z,72.79
2023-03-11T05:51:40.646Z,72.43
2023-03-11T05:52:45.652Z,72.70
2023-03-11T05:53:49.556Z,72.47
2023-03-11T05:54:53.050Z,72.17
2023-03-11T05:55:59.092Z,72.53
2023-03-11T05:57:02.857Z,72.50
2023-03-11T05:58:05.405Z,72.41
2023-03-11T05:59:09.033Z,71.94
2023-03-11T06:00:12.578Z,71.69
2023-03-11T06:01:18.494Z,70.98
2023-03-11T06:02:23.450Z,71.56
2023-03-11T06:03:26.226Z,71.63
2023-03-11T06:04:30.061Z,72.21
2023-03-11T06:05:34.404Z,70.82
2023-03-11T06:06:37.682Z,70.78
2023-03-11T06:07:41.432Z,70.96
2023-03-11T06:08:49.974Z,70.38
2023-03-11T06:09:53.659Z,70.37
2023-03-11T06:11:02.475Z,70.03
2023-03-11T06:12:07.165Z,70.17
2023-03-11T06:13:10.055Z,69.26
2023-03-11T06:14:14.666Z,68.77
2023-03-11T06:15:17.275Z,68.53
2023-03-11T06:16:20.851Z,68.58
2023-03-11T06:17:23.671Z,68.13
2023-03-11T06:18:27.772Z,67.90
2023-03-11T06:19:30.347Z,66.94
2023-03-11T06:20:34.066Z,66.94
2023-03-11T06:21:36.878Z,66.82
2023-03-11T06:22:40.765Z,67.10
2023-03-11T06:23:44.359Z,66.01
2023-03-11T06:24:47.946Z,66.28
2023-03-11T06:25:56.465Z,65.33
2023-03-11T06:27:00.114Z,64.55
2023-03-11T06:28:02.862Z,64.21
2023-03-11T06:29:06.451Z,64.57
2023-03-11T06:30:10.627Z,65.89
2023-03-11T06:31:17.322Z,65.37
2023-03-11T06:32:20.989Z,63.89
2023-03-11T06:33:24.433Z,64.71
2023-03-11T06:34:28.042Z,65.63
2023-03-11T06:35:30.589Z,66.13
2023-03-11T06:36:34.612Z,66.80
2023-03-11T06:37:37.696Z,65.93
2023-03-11T06:38:41.891Z,66.53
2023-03-11T06:39:46.950Z,66.33
2023-03-11T06:40:49.430Z,66.18
2023-03-11T06:41:52.987Z,66.15
2023-03-11T06:42:55.502Z,65.36
2023-03-11T06:44:01.559Z,65.34
2023-03-11T06:45:04.443Z,64.88
2023-03-11T06:46:12.068Z,64.66
2023-03-11T06:47:14.659Z,65.04
2023-03-11T06:48:18.293Z,64.92
2023-03-11T06:49:21.192Z,64.67
2023-03-11T06:50:25.134Z,64.62
2023-03-11T06:51:27.889Z,64.02
2023-03-11T06:52:31.444Z,63.63
2023-03-11T06:53:34.306Z,62.93
2023-03-11T06:54:38.677Z,62.66
2023-03-11T06:55:42.785Z,60.11
2023-03-11T06:56:46.646Z,59.97
2023-03-11T06:57:49.164Z,60.52
2023-03-11T06:58:53.184Z,60.73
2023-03-11T06:59:57.315Z,60.18
2023-03-11T07:01:04.293Z,60.05
2023-03-11T07:02:08.393Z,59.00
2023-03-11T07:03:10.852Z,58.02
2023-03-11T07:04:14.905Z,58.01
2023-03-11T07:05:18.097Z,57.99
2023-03-11T07:06:23.585Z,57.33
2023-03-11T07:07:26.031Z,56.32
2023-03-11T07:08:30.564Z,55.05
2023-03-11T07:09:34.125Z,54.12
2023-03-11T07:10:37.104Z,53.17
2023-03-11T07:11:42.238Z,54.14
2023-03-11T07:12:44.948Z,54.46
2023-03-11T07:13:48.612Z,54.40
2023-03-11T07:14:55.289Z,54.21
2023-03-11T07:16:03.478Z,54.12
2023-03-11T07:17:06.117Z,54.09
2023-03-11T07:18:09.738Z,54.89
2023-03-11T07:19:12.935Z,55.54
2023-03-11T07:20:16.729Z,55.14
2023-03-11T07:21:21.203Z,54.29
2023-03-11T07:22:24.927Z,54.36
2023-03-11T07:23:27.433Z,54.85
2023-03-11T07:24:31.247Z,53.82
2023-03-11T07:25:34.474Z,53.25
2023-03-11T07:26:37.153Z,53.27
2023-03-11T07:27:42.156Z,52.72
2023-03-11T07:28:46.012Z,53.16
2023-03-11T07:29:48.229Z,52.28
2023-03-11T07:30:52.302Z,52.01
2023-03-11T07:31:55.049Z,51.88
2023-03-11T07:32:58.688Z,51.95
2023-03-11T07:34:04.467Z,53.05
2023-03-11T07:35:08.292Z,52.99
2023-03-11T07:36:12.902Z,52.74
2023-03-11T07:37:15.646Z,52.72
2023-03-11T07:38:20.042Z,52.63
2023-03-11T07:39:22.526Z,52.57
2023-03-11T07:40:26.082Z,53.13
2023-03-11T07:41:28.522Z,52.87
2023-03-11T07:42:34.685Z,51.90
2023-03-11T07:43:38.875Z,52.58
2023-03-11T07:44:42.826Z,52.44
2023-03-11T07:45:45.459Z,52.80
2023-03-11T07:46:49.131Z,51.99
2023-03-11T07:47:52.101Z,52.90
2023-03-11T07:48:56.420Z,53.06
2023-03-11T07:49:58.937Z,53.18
2023-03-11T07:51:04.657Z,52.08
2023-03-11T07:52:07.904Z,51.25
2023-03-11T07:53:11.856Z,51.48
2023-03-11T07:54:14.350Z,52.77
2023-03-11T07:55:18.242Z,52.23
2023-03-11T07:56:22.928Z,51.50
2023-03-11T07:57:27.315Z,50.32
2023-03-11T07:58:30.666Z,50.01
2023-03-11T07:59:35.592Z,50.85
2023-03-11T08:00:38.113Z,50.09
2023-03-11T08:01:47.409Z,49.97
2023-03-11T08:02:50.064Z,49.20
2023-03-11T08:03:57.545Z,48.64
2023-03-11T08:05:01.245Z,49.31
2023-03-11T08:06:04.523Z,49.72
2023-03-11T08:07:08.362Z,49.45
2023-03-11T08:08:10.497Z,49.46
2023-03-11T08:09:14.604Z,49.50
2023-03-11T08:10:17.582Z,49.32
2023-03-11T08:11:22.636Z,49.30
2023-03-11T08:12:25.308Z,48.90
2023-03-11T08:13:28.815Z,48.85
2023-03-11T08:14:32.478Z,48.95
2023-03-11T08:15:37.400Z,48.72
2023-03-11T08:16:42.062Z,48.86
2023-03-11T08:17:44.446Z,48.22
2023-03-11T08:18:48.652Z,47.64
2023-03-11T08:19:52.715Z,48.29
2023-03-11T08:20:56.179Z,47.90
2023-03-11T08:21:58.617Z,48.15
2023-03-11T08:23:02.111Z,48.44
2023-03-11T08:24:07.000Z,48.89
2023-03-11T08:25:10.247Z,49.18
2023-03-11T08:26:15.504Z,48.41
2023-03-11T08:27:19.080Z,47.96
2023-03-11T08:28:21.528Z,47.24
2023-03-11T08:29:25.222Z,47.70
2023-03-11T08:30:27.950Z,48.04
2023-03-11T08:31:35.308Z,48.01
2023-03-11T08:32:39.028Z,48.38
2023-03-11T08:33:42.273Z,48.33
2023-03-11T08:34:45.894Z,47.76
2023-03-11T08:35:48.777Z,47.63
2023-03-11T08:36:52.669Z,48.37
2023-03-11T08:37:55.125Z,48.82
2023-03-11T08:39:01.494Z,48.59
2023-03-11T08:40:05.333Z,47.93
2023-03-11T08:41:09.806Z,49.25
2023-03-11T08:42:13.296Z,49.67
2023-03-11T08:43:16.120Z,48.48
2023-03-11T08:44:19.782Z,48.72
2023-03-11T08:45:22.623Z,48.74
2023-03-11T08:46:28.452Z,48.94
2023-03-11T08:47:36.562Z,47.79
2023-03-11T08:48:40.076Z,48.33
2023-03-11T08:49:43.799Z,47.69
2023-03-11T08:50:53.947Z,47.81
2023-03-11T08:51:57.408Z,48.30
2023-03-11T08:53:03.395Z,48.22
2023-03-11T08:54:07.842Z,48.58
2023-03-11T08:55:13.715Z,48.26
2023-03-11T08:56:17.359Z,50.04
2023-03-11T08:57:21.278Z,50.65
2023-03-11T08:58:25.146Z,52.63
2023-03-11T08:59:27.564Z,51.92
2023-03-11T09:00:31.199Z,51.75
2023-03-11T09:01:33.771Z,52.03
2023-03-11T09:02:39.163Z,52.50
2023-03-11T09:03:41.753Z,51.49
2023-03-11T09:04:45.350Z,52.48
2023-03-11T09:05:47.823Z,51.96
2023-03-11T09:06:51.540Z,51.97
2023-03-11T09:07:54.374Z,52.80
2023-03-11T09:08:58.153Z,52.66
2023-03-11T09:10:00.346Z,51.01
2023-03-11T09:11:04.332Z,50.89
2023-03-11T09:12:08.689Z,50.20
2023-03-11T09:13:11.477Z,51.32
2023-03-11T09:14:15.200Z,50.37
2023-03-11T09:15:18.038Z,51.92
2023-03-11T09:16:23.485Z,50.75
2023-03-11T09:17:26.745Z,50.16
2023-03-11T09:18:32.505Z,49.79
2023-03-11T09:19:37.399Z,50.39
2023-03-11T09:20:40.234Z,50.71
2023-03-11T09:21:44.445Z,50.84
2023-03-11T09:22:48.806Z,51.08
2023-03-11T09:23:52.830Z,51.44
2023-03-11T09:24:55.972Z,52.25
2023-03-11T09:26:00.489Z,52.35
2023-03-11T09:27:03.567Z,51.56
2023-03-11T09:28:08.199Z,50.54
2023-03-11T09:29:12.269Z,50.73
2023-03-11T09:30:15.153Z,50.94
2023-03-11T09:31:19.225Z,50.21
2023-03-11T09:32:22.119Z,49.82
2023-03-11T09:33:26.598Z,51.07
2023-03-11T09:34:32.431Z,50.22
2023-03-11T09:35:35.163Z,49.32
2023-03-11T09:36:38.852Z,49.39
2023-03-11T09:37:41.377Z,48.93
2023-03-11T09:38:45.138Z,49.18
2023-03-11T09:39:47.486Z,50.35
2023-03-11T09:40:58.380Z,48.79
2023-03-11T09:42:12.372Z,49.97
2023-03-11T09:43:23.155Z,50.28
2023-03-11T09:44:34.342Z,49.98
2023-03-11T09:45:43.805Z,50.63
2023-03-11T09:47:06.421Z,50.87
2023-03-11T09:48:13.962Z,52.20
2023-03-11T09:49:25.240Z,51.18
2023-03-11T09:50:34.418Z,51.85
2023-03-11T09:51:41.692Z,51.29
2023-03-11T09:52:52.071Z,50.78
2023-03-11T09:54:00.525Z,49.98
2023-03-11T09:55:05.943Z,50.33
2023-03-11T09:56:13.524Z,49.78
2023-03-11T09:57:21.532Z,48.56
2023-03-11T09:58:37.980Z,49.03
2023-03-11T09:59:43.892Z,48.50
2023-03-11T10:00:48.409Z,48.84
2023-03-11T10:01:52.098Z,49.45
2023-03-11T10:02:58.829Z,49.93
2023-03-11T10:04:10.165Z,51.26
2023-03-11T10:05:21.936Z,50.88
2023-03-11T10:06:30.184Z,50.69
2023-03-11T10:07:37.225Z,48.84
2023-03-11T10:08:45.717Z,49.56
2023-03-11T10:09:53.247Z,50.48
2023-03-11T10:11:06.718Z,48.00
2023-03-11T10:12:26.651Z,47.62
2023-03-11T10:13:36.204Z,47.94
2023-03-11T10:14:57.158Z,48.12
2023-03-11T10:16:14.144Z,48.49
2023-03-11T10:17:42.320Z,47.49
2023-03-11T10:19:02.578Z,47.24
2023-03-11T10:20:20.484Z,47.62
2023-03-11T10:21:39.976Z,47.85
2023-03-11T10:22:48.624Z,45.58
2023-03-11T10:24:08.842Z,44.86
2023-03-11T10:25:14.984Z,45.29
2023-03-11T10:26:25.133Z,44.95
2023-03-11T10:27:33.091Z,44.60
2023-03-11T10:28:40.652Z,44.77
2023-03-11T10:29:53.598Z,45.93
2023-03-11T10:31:03.287Z,46.78
2023-03-11T10:32:14.299Z,45.97
2023-03-11T10:33:26.292Z,46.10
2023-03-11T10:34:34.803Z,46.21
2023-03-11T10:35:40.955Z,45.20
2023-03-11T10:36:55.558Z,44.98
2023-03-11T10:38:05.410Z,44.21
2023-03-11T10:39:25.200Z,43.35
2023-03-11T10:40:31.860Z,43.11
2023-03-11T10:41:51.286Z,42.57
2023-03-11T10:42:56.728Z,42.32
2023-03-11T10:44:07.242Z,42.81
2023-03-11T10:45:13.847Z,45.02
2023-03-11T10:46:20.875Z,43.21
2023-03-11T10:47:26.521Z,42.50
2023-03-11T10:48:28.995Z,42.25
2023-03-11T10:49:35.512Z,42.35
2023-03-11T10:50:43.674Z,42.34
2023-03-11T10:51:49.463Z,44.87
2023-03-11T10:53:11.905Z,44.65
2023-03-11T10:54:24.700Z,44.14
2023-03-11T10:55:28.990Z,44.21
2023-03-11T10:56:35.493Z,43.96
2023-03-11T10:57:56.962Z,44.68
2023-03-11T10:59:02.042Z,44.59
2023-03-11T11:00:12.611Z,42.89
2023-03-11T11:01:18.941Z,42.33
2023-03-11T11:02:28.114Z,41.62
2023-03-11T11:03:31.002Z,41.76
2023-03-11T11:04:38.384Z,42.35
2023-03-11T11:05:41.493Z,42.53
2023-03-11T11:06:45.469Z,43.46
2023-03-11T11:07:50.652Z,42.87
2023-03-11T11:09:33.388Z,40.40
2023-03-11T11:10:57.580Z,40.23
2023-03-11T11:12:07.860Z,41.04
2023-03-11T11:13:19.633Z,39.39
2023-03-11T11:14:24.378Z,40.39
2023-03-11T11:15:29.895Z,39.94
2023-03-11T11:16:35.671Z,39.90
2023-03-11T11:17:41.758Z,39.26
2023-03-11T11:18:49.469Z,39.08
2023-03-11T11:19:53.741Z,40.28
2023-03-11T11:21:01.469Z,39.13
2023-03-11T11:22:06.863Z,38.19
2023-03-11T11:23:27.948Z,37.59
2023-03-11T11:24:33.164Z,38.11
2023-03-11T11:25:38.534Z,39.84
2023-03-11T11:26:42.063Z,40.22
2023-03-11T11:27:54.568Z,39.64
2023-03-11T11:29:09.450Z,40.07
2023-03-11T11:30:17.031Z,38.95
2023-03-11T11:31:27.155Z,39.18
2023-03-11T11:32:29.703Z,38.77
2023-03-11T11:33:35.479Z,38.20
2023-03-11T11:34:54.007Z,38.64
2023-03-11T11:36:11.072Z,39.32
2023-03-11T11:37:19.210Z,38.55
2023-03-11T11:38:26.660Z,39.48
2023-03-11T11:39:33.654Z,37.74
2023-03-11T11:40:38.041Z,35.38
2023-03-11T11:41:40.706Z,35.60
2023-03-11T11:42:50.161Z,35.91
2023-03-11T11:43:56.302Z,35.72
2023-03-11T11:45:03.930Z,36.71
2023-03-11T11:46:13.662Z,36.96
2023-03-11T11:47:20.493Z,36.19
2023-03-11T11:48:28.695Z,38.15
2023-03-11T11:49:34.082Z,38.71
2023-03-11T11:50:39.176Z,37.85
2023-03-11T11:51:48.788Z,38.01
2023-03-11T11:52:57.816Z,37.73
2023-03-11T11:54:10.631Z,35.74
2023-03-11T11:55:21.267Z,34.55
2023-03-11T11:56:26.029Z,35.67
2023-03-11T11:57:29.431Z,37.43
2023-03-11T11:58:33.183Z,37.48
2023-03-11T11:59:37.315Z,35.85
2023-03-11T12:00:51.058Z,37.11
2023-03-11T12:02:08.799Z,36.37
2023-03-11T12:03:30.103Z,36.37
2023-03-11T12:04:52.002Z,35.50
2023-03-11T12:05:59.205Z,34.05
2023-03-11T12:07:20.539Z,33.85
2023-03-11T12:08:32.385Z,34.08
2023-03-11T12:09:49.077Z,33.92
2023-03-11T12:10:58.932Z,33.46
2023-03-11T12:12:12.126Z,34.01
2023-03-11T12:13:40.334Z,36.24
2023-03-11T12:14:49.357Z,36.65
2023-03-11T12:15:59.939Z,35.56
2023-03-11T12:17:05.691Z,35.39
2023-03-11T12:18:15.629Z,35.10
2023-03-11T12:19:21.939Z,35.45
2023-03-11T12:20:32.873Z,35.05
2023-03-11T12:22:07.444Z,34.80
2023-03-11T12:23:22.114Z,33.72
2023-03-11T12:24:47.662Z,33.92
2023-03-11T12:26:07.929Z,34.78
2023-03-11T12:27:19.557Z,34.86
2023-03-11T12:28:31.491Z,36.12
2023-03-11T12:29:36.088Z,34.41
2023-03-11T12:30:46.206Z,34.26
2023-03-11T12:31:51.188Z,34.29
2023-03-11T12:33:04.930Z,34.26
2023-03-11T12:34:12.571Z,34.93
2023-03-11T12:35:23.551Z,35.07
2023-03-11T12:36:44.665Z,35.47
2023-03-11T12:38:09.646Z,35.75
2023-03-11T12:39:23.482Z,35.66
2023-03-11T12:40:59.523Z,34.55
2023-03-11T12:42:20.785Z,35.44
2023-03-11T12:43:47.635Z,35.63
2023-03-11T12:44:51.587Z,35.42
2023-03-11T12:45:55.713Z,35.59
2023-03-11T12:47:05.172Z,36.66
2023-03-11T12:48:33.886Z,36.55
2023-03-11T12:49:37.203Z,37.29
2023-03-11T12:50:43.850Z,36.87
2023-03-11T12:52:02.371Z,36.60
2023-03-11T12:53:06.523Z,36.87
2023-03-11T12:54:28.966Z,37.81
2023-03-11T12:55:35.342Z,38.27
2023-03-11T12:56:44.248Z,37.79
2023-03-11T12:57:55.673Z,39.44
2023-03-11T12:59:20.186Z,39.21
2023-03-11T13:00:37.744Z,39.65
2023-03-11T13:01:58.011Z,39.84
2023-03-11T13:03:33.788Z,40.85
2023-03-11T13:04:56.341Z,40.67
2023-03-11T13:06:01.286Z,40.62
2023-03-11T13:07:39.458Z,41.24
2023-03-11T13:08:47.768Z,40.84
2023-03-11T13:10:04.341Z,42.02
2023-03-11T13:11:28.250Z,41.95
2023-03-11T13:12:44.581Z,42.71
2023-03-11T13:13:47.454Z,41.84
2023-03-11T13:15:11.383Z,42.92
2023-03-11T13:16:42.752Z,43.24
2023-03-11T13:17:58.592Z,44.15
2023-03-11T13:19:38.176Z,44.28
2023-03-11T13:20:52.912Z,43.28
2023-03-11T13:21:59.207Z,44.30
2023-03-11T13:23:23.667Z,43.69
2023-03-11T13:24:51.772Z,44.34
2023-03-11T13:26:28.025Z,44.25
2023-03-11T13:27:46.884Z,43.77
2023-03-11T13:29:15.836Z,43.71
2023-03-11T13:30:36.363Z,44.41
2023-03-11T13:31:50.932Z,45.58
2023-03-11T13:33:09.395Z,45.96
2023-03-11T13:34:16.044Z,45.21
2023-03-11T13:35:34.365Z,44.58
2023-03-11T13:36:53.152Z,45.99
2023-03-11T13:38:15.547Z,45.46
2023-03-11T13:39:30.678Z,45.82
2023-03-11T13:40:38.593Z,45.58
2023-03-11T13:41:44.321Z,46.20
2023-03-11T13:42:51.996Z,47.60
2023-03-11T13:44:01.436Z,47.38
2023-03-11T13:45:05.902Z,48.16
2023-03-11T13:46:15.138Z,48.58
2023-03-11T13:47:20.541Z,49.27
2023-03-11T13:48:29.505Z,49.12
2023-03-11T13:49:39.566Z,49.19
2023-03-11T13:50:45.407Z,48.25
2023-03-11T13:51:49.851Z,49.70
2023-03-11T13:52:55.072Z,48.79
2023-03-11T13:54:03.141Z,48.45
2023-03-11T13:55:10.907Z,48.57
2023-03-11T13:56:19.271Z,48.04
2023-03-11T13:57:29.592Z,48.00
2023-03-11T13:58:33.458Z,48.37
2023-03-11T13:59:37.093Z,49.44
2023-03-11T14:00:50.089Z,48.86
2023-03-11T14:01:58.478Z,49.02
2023-03-11T14:03:05.149Z,49.13
2023-03-11T14:04:11.741Z,49.26
2023-03-11T14:05:18.983Z,48.90
2023-03-11T14:06:21.661Z,49.36
2023-03-11T14:07:30.685Z,49.10
2023-03-11T14:08:36.266Z,49.76
2023-03-11T14:09:39.358Z,50.01
2023-03-11T14:10:53.650Z,49.48
2023-03-11T14:12:04.121Z,49.58
2023-03-11T14:13:17.742Z,49.99
2023-03-11T14:14:35.899Z,50.49
2023-03-11T14:15:47.453Z,49.72
2023-03-11T14:16:50.352Z,50.63